sensor_id;sensor_type;location;lat;lon;timestamp;temperature;humidity
13585;DHT22;6863;48.402;9.994;2023-05-24T00:00:38;13.20;99.90
13585;DHT22;6863;48.402;9.994;2023-05-24T00:03:05;13.10;99.90
13585;DHT22;6863;48.402;9.994;2023-05-24T00:05:31;13.10;99.90
13585;DHT22;6863;48.402;9.994;2023-05-24T00:07:58;13.10;99.90
13585;DHT22;6863;48.402;9.994;2023-05-24T00:10:24;13.00;99.90
13585;DHT22;6863;48.402;9.994;2023-05-24T00:12:50;12.90;99.90
13585;DHT22;6863;48.402;9.994;2023-05-24T00:15:15;12.90;99.90
13585;DHT22;6863;48.402;9.994;2023-05-24T00:17:41;12.90;99.90
13585;DHT22;6863;48.402;9.994;2023-05-24T00:20:10;12.90;99.90
13585;DHT22;6863;48.402;9.994;2023-05-24T00:22:37;13.00;99.90
13585;DHT22;6863;48.402;9.994;2023-05-24T00:25:03;13.00;99.90
13585;DHT22;6863;48.402;9.994;2023-05-24T00:27:30;13.00;99.90
13585;DHT22;6863;48.402;9.994;2023-05-24T00:29:56;13.00;99.90
13585;DHT22;6863;48.402;9.994;2023-05-24T00:32:21;12.90;99.90
13585;DHT22;6863;48.402;9.994;2023-05-24T00:34:47;12.90;99.90
13585;DHT22;6863;48.402;9.994;2023-05-24T00:37:13;12.90;99.90
13585;DHT22;6863;48.402;9.994;2023-05-24T00:39:39;12.90;99.90
13585;DHT22;6863;48.402;9.994;2023-05-24T00:42:05;12.90;99.90
13585;DHT22;6863;48.402;9.994;2023-05-24T00:44:31;12.80;99.90
13585;DHT22;6863;48.402;9.994;2023-05-24T00:46:57;12.80;99.90
13585;DHT22;6863;48.402;9.994;2023-05-24T00:49:23;12.80;99.90
13585;DHT22;6863;48.402;9.994;2023-05-24T00:51:51;12.80;99.90
13585;DHT22;6863;48.402;9.994;2023-05-24T00:54:17;12.80;99.90
13585;DHT22;6863;48.402;9.994;2023-05-24T00:56:43;12.80;99.90
13585;DHT22;6863;48.402;9.994;2023-05-24T00:59:09;12.80;99.90
13585;DHT22;6863;48.402;9.994;2023-05-24T01:01:35;12.80;99.90
13585;DHT22;6863;48.402;9.994;2023-05-24T01:04:02;12.80;99.90
13585;DHT22;6863;48.402;9.994;2023-05-24T01:06:28;12.80;99.90
13585;DHT22;6863;48.402;9.994;2023-05-24T01:14:28;12.80;99.90
13585;DHT22;6863;48.402;9.994;2023-05-24T01:17:14;12.80;99.90
13585;DHT22;6863;48.402;9.994;2023-05-24T01:19:53;12.80;99.90
13585;DHT22;6863;48.402;9.994;2023-05-24T01:22:35;12.80;99.90
13585;DHT22;6863;48.402;9.994;2023-05-24T01:27:49;12.80;99.90
13585;DHT22;6863;48.402;9.994;2023-05-24T01:30:15;12.70;99.90
13585;DHT22;6863;48.402;9.994;2023-05-24T01:32:41;12.70;99.90
13585;DHT22;6863;48.402;9.994;2023-05-24T01:35:07;12.70;99.90
13585;DHT22;6863;48.402;9.994;2023-05-24T01:37:33;12.70;99.90
13585;DHT22;6863;48.402;9.994;2023-05-24T01:39:59;12.70;99.90
13585;DHT22;6863;48.402;9.994;2023-05-24T01:42:40;12.60;99.90
13585;DHT22;6863;48.402;9.994;2023-05-24T01:45:27;12.60;99.90
13585;DHT22;6863;48.402;9.994;2023-05-24T01:50:39;12.50;99.90
13585;DHT22;6863;48.402;9.994;2023-05-24T01:53:08;12.50;99.90
13585;DHT22;6863;48.402;9.994;2023-05-24T01:55:37;12.50;99.90
13585;DHT22;6863;48.402;9.994;2023-05-24T01:58:04;12.50;99.90
13585;DHT22;6863;48.402;9.994;2023-05-24T02:00:31;12.40;99.90
13585;DHT22;6863;48.402;9.994;2023-05-24T02:02:57;12.40;99.90
13585;DHT22;6863;48.402;9.994;2023-05-24T02:05:23;12.40;99.90
13585;DHT22;6863;48.402;9.994;2023-05-24T02:07:49;12.30;99.90
13585;DHT22;6863;48.402;9.994;2023-05-24T02:10:15;12.30;99.90
13585;DHT22;6863;48.402;9.994;2023-05-24T02:12:41;12.30;99.90
13585;DHT22;6863;48.402;9.994;2023-05-24T02:15:07;12.30;99.90
13585;DHT22;6863;48.402;9.994;2023-05-24T02:17:32;12.20;99.90
13585;DHT22;6863;48.402;9.994;2023-05-24T02:20:00;12.20;99.90
13585;DHT22;6863;48.402;9.994;2023-05-24T02:22:26;12.20;99.90
13585;DHT22;6863;48.402;9.994;2023-05-24T02:27:23;12.20;99.90
13585;DHT22;6863;48.402;9.994;2023-05-24T02:29:49;12.20;99.90
13585;DHT22;6863;48.402;9.994;2023-05-24T02:32:14;12.20;99.90
13585;DHT22;6863;48.402;9.994;2023-05-24T02:34:40;12.20;99.90
13585;DHT22;6863;48.402;9.994;2023-05-24T02:37:07;12.10;99.90
13585;DHT22;6863;48.402;9.994;2023-05-24T02:39:32;12.10;99.90
13585;DHT22;6863;48.402;9.994;2023-05-24T02:41:58;12.10;99.90
13585;DHT22;6863;48.402;9.994;2023-05-24T02:44:23;12.10;99.90
13585;DHT22;6863;48.402;9.994;2023-05-24T02:46:49;12.10;99.90
13585;DHT22;6863;48.402;9.994;2023-05-24T02:49:15;12.10;99.90
13585;DHT22;6863;48.402;9.994;2023-05-24T02:51:40;12.10;99.90
13585;DHT22;6863;48.402;9.994;2023-05-24T02:54:06;12.10;99.90
13585;DHT22;6863;48.402;9.994;2023-05-24T02:56:31;12.10;99.90
13585;DHT22;6863;48.402;9.994;2023-05-24T02:58:57;12.10;99.90
13585;DHT22;6863;48.402;9.994;2023-05-24T03:01:23;12.00;99.90
13585;DHT22;6863;48.402;9.994;2023-05-24T03:03:48;11.90;99.90
13585;DHT22;6863;48.402;9.994;2023-05-24T03:06:14;11.90;99.90
13585;DHT22;6863;48.402;9.994;2023-05-24T03:08:40;11.90;99.90
13585;DHT22;6863;48.402;9.994;2023-05-24T03:11:06;11.90;99.90
13585;DHT22;6863;48.402;9.994;2023-05-24T03:13:31;11.80;99.90
13585;DHT22;6863;48.402;9.994;2023-05-24T03:15:57;11.90;99.90
13585;DHT22;6863;48.402;9.994;2023-05-24T03:18:23;11.80;99.90
13585;DHT22;6863;48.402;9.994;2023-05-24T03:20:49;11.80;99.80
13585;DHT22;6863;48.402;9.994;2023-05-24T03:23:14;11.60;99.50
13585;DHT22;6863;48.402;9.994;2023-05-24T03:25:43;11.60;99.70
13585;DHT22;6863;48.402;9.994;2023-05-24T03:28:09;11.60;99.80
13585;DHT22;6863;48.402;9.994;2023-05-24T03:30:35;11.60;99.10
13585;DHT22;6863;48.402;9.994;2023-05-24T03:33:00;11.50;98.80
13585;DHT22;6863;48.402;9.994;2023-05-24T03:35:26;11.50;98.80
13585;DHT22;6863;48.402;9.994;2023-05-24T03:37:52;11.50;99.10
13585;DHT22;6863;48.402;9.994;2023-05-24T03:40:18;11.40;99.20
13585;DHT22;6863;48.402;9.994;2023-05-24T03:42:43;11.40;99.20
13585;DHT22;6863;48.402;9.994;2023-05-24T03:45:09;11.30;99.40
13585;DHT22;6863;48.402;9.994;2023-05-24T03:47:35;11.30;99.40
13585;DHT22;6863;48.402;9.994;2023-05-24T03:50:00;11.20;99.70
13585;DHT22;6863;48.402;9.994;2023-05-24T03:52:26;11.20;99.90
13585;DHT22;6863;48.402;9.994;2023-05-24T03:54:52;11.20;99.90
13585;DHT22;6863;48.402;9.994;2023-05-24T03:57:17;11.20;99.80
13585;DHT22;6863;48.402;9.994;2023-05-24T03:59:43;11.20;99.90
13585;DHT22;6863;48.402;9.994;2023-05-24T04:02:08;11.30;99.70
13585;DHT22;6863;48.402;9.994;2023-05-24T04:04:34;11.30;99.90
13585;DHT22;6863;48.402;9.994;2023-05-24T04:07:01;11.30;99.80
13585;DHT22;6863;48.402;9.994;2023-05-24T04:09:27;11.40;99.50
13585;DHT22;6863;48.402;9.994;2023-05-24T04:11:53;11.40;99.80
13585;DHT22;6863;48.402;9.994;2023-05-24T04:14:18;11.40;99.60
13585;DHT22;6863;48.402;9.994;2023-05-24T04:16:44;11.30;99.80
13585;DHT22;6863;48.402;9.994;2023-05-24T04:19:10;11.40;99.90
13585;DHT22;6863;48.402;9.994;2023-05-24T04:21:39;11.30;99.90
13585;DHT22;6863;48.402;9.994;2023-05-24T04:24:04;11.30;99.90
13585;DHT22;6863;48.402;9.994;2023-05-24T04:26:31;11.30;99.90
13585;DHT22;6863;48.402;9.994;2023-05-24T04:28:58;11.40;99.90
13585;DHT22;6863;48.402;9.994;2023-05-24T04:31:24;11.40;99.90
13585;DHT22;6863;48.402;9.994;2023-05-24T04:33:50;11.40;99.80
13585;DHT22;6863;48.402;9.994;2023-05-24T04:36:16;11.50;99.40
13585;DHT22;6863;48.402;9.994;2023-05-24T04:38:42;11.50;99.30
13585;DHT22;6863;48.402;9.994;2023-05-24T04:41:10;11.50;99.40
13585;DHT22;6863;48.402;9.994;2023-05-24T04:43:36;11.60;99.30
13585;DHT22;6863;48.402;9.994;2023-05-24T04:46:03;11.70;99.10
13585;DHT22;6863;48.402;9.994;2023-05-24T04:48:29;11.80;99.30
13585;DHT22;6863;48.402;9.994;2023-05-24T04:50:56;11.80;99.10
13585;DHT22;6863;48.402;9.994;2023-05-24T04:53:25;11.80;98.40
13585;DHT22;6863;48.402;9.994;2023-05-24T04:55:50;11.80;98.60
13585;DHT22;6863;48.402;9.994;2023-05-24T04:58:17;11.90;98.70
13585;DHT22;6863;48.402;9.994;2023-05-24T05:00:43;11.90;98.10
13585;DHT22;6863;48.402;9.994;2023-05-24T05:03:09;12.10;97.70
13585;DHT22;6863;48.402;9.994;2023-05-24T05:05:35;12.20;97.30
13585;DHT22;6863;48.402;9.994;2023-05-24T05:08:04;12.30;97.00
13585;DHT22;6863;48.402;9.994;2023-05-24T05:10:30;12.40;96.90
13585;DHT22;6863;48.402;9.994;2023-05-24T05:12:56;12.50;96.70
13585;DHT22;6863;48.402;9.994;2023-05-24T05:15:22;12.60;96.70
13585;DHT22;6863;48.402;9.994;2023-05-24T05:17:49;12.60;96.30
13585;DHT22;6863;48.402;9.994;2023-05-24T05:20:15;12.50;95.80
13585;DHT22;6863;48.402;9.994;2023-05-24T05:22:50;12.60;96.10
13585;DHT22;6863;48.402;9.994;2023-05-24T05:25:15;12.60;96.30
13585;DHT22;6863;48.402;9.994;2023-05-24T05:27:43;12.60;95.80
13585;DHT22;6863;48.402;9.994;2023-05-24T05:30:09;12.50;95.20
13585;DHT22;6863;48.402;9.994;2023-05-24T05:32:35;12.40;95.30
13585;DHT22;6863;48.402;9.994;2023-05-24T05:35:01;12.50;95.60
13585;DHT22;6863;48.402;9.994;2023-05-24T05:37:27;12.60;95.30
13585;DHT22;6863;48.402;9.994;2023-05-24T05:39:52;12.70;95.30
13585;DHT22;6863;48.402;9.994;2023-05-24T05:42:18;12.70;94.50
13585;DHT22;6863;48.402;9.994;2023-05-24T05:44:43;12.70;94.90
13585;DHT22;6863;48.402;9.994;2023-05-24T05:47:09;12.70;94.60
13585;DHT22;6863;48.402;9.994;2023-05-24T05:49:34;12.60;94.60
13585;DHT22;6863;48.402;9.994;2023-05-24T05:52:03;12.70;94.30
13585;DHT22;6863;48.402;9.994;2023-05-24T05:54:29;12.80;94.30
13585;DHT22;6863;48.402;9.994;2023-05-24T05:56:55;12.70;94.80
13585;DHT22;6863;48.402;9.994;2023-05-24T05:59:21;12.80;94.50
13585;DHT22;6863;48.402;9.994;2023-05-24T06:01:46;12.90;94.20
13585;DHT22;6863;48.402;9.994;2023-05-24T06:04:14;12.90;94.30
13585;DHT22;6863;48.402;9.994;2023-05-24T06:06:39;12.90;94.60
13585;DHT22;6863;48.402;9.994;2023-05-24T06:09:06;13.10;94.80
13585;DHT22;6863;48.402;9.994;2023-05-24T06:11:32;13.30;94.10
13585;DHT22;6863;48.402;9.994;2023-05-24T06:13:58;13.10;93.80
13585;DHT22;6863;48.402;9.994;2023-05-24T06:16:23;13.20;93.80
13585;DHT22;6863;48.402;9.994;2023-05-24T06:18:49;13.20;94.40
13585;DHT22;6863;48.402;9.994;2023-05-24T06:21:15;13.30;94.50
13585;DHT22;6863;48.402;9.994;2023-05-24T06:23:41;13.40;94.40
13585;DHT22;6863;48.402;9.994;2023-05-24T06:26:07;13.50;93.70
13585;DHT22;6863;48.402;9.994;2023-05-24T06:28:36;13.50;93.60
13585;DHT22;6863;48.402;9.994;2023-05-24T06:31:03;13.70;93.60
13585;DHT22;6863;48.402;9.994;2023-05-24T06:33:29;13.80;93.40
13585;DHT22;6863;48.402;9.994;2023-05-24T06:35:56;13.70;93.40
13585;DHT22;6863;48.402;9.994;2023-05-24T06:38:22;13.50;93.50
13585;DHT22;6863;48.402;9.994;2023-05-24T06:40:48;13.40;93.50
13585;DHT22;6863;48.402;9.994;2023-05-24T06:43:16;13.40;93.80
13585;DHT22;6863;48.402;9.994;2023-05-24T06:45:42;13.60;93.40
13585;DHT22;6863;48.402;9.994;2023-05-24T06:48:08;13.40;93.30
13585;DHT22;6863;48.402;9.994;2023-05-24T06:50:33;13.80;93.60
13585;DHT22;6863;48.402;9.994;2023-05-24T06:53:00;14.00;93.20
13585;DHT22;6863;48.402;9.994;2023-05-24T06:55:27;14.00;92.70
13585;DHT22;6863;48.402;9.994;2023-05-24T06:57:53;14.10;92.40
13585;DHT22;6863;48.402;9.994;2023-05-24T07:00:18;14.20;92.30
13585;DHT22;6863;48.402;9.994;2023-05-24T07:02:44;14.30;92.20
13585;DHT22;6863;48.402;9.994;2023-05-24T07:05:10;14.40;92.00
13585;DHT22;6863;48.402;9.994;2023-05-24T07:07:43;14.40;91.90
13585;DHT22;6863;48.402;9.994;2023-05-24T07:10:12;14.20;91.80
13585;DHT22;6863;48.402;9.994;2023-05-24T07:12:37;14.20;92.00
13585;DHT22;6863;48.402;9.994;2023-05-24T07:15:04;14.50;91.90
13585;DHT22;6863;48.402;9.994;2023-05-24T07:17:30;14.80;91.00
13585;DHT22;6863;48.402;9.994;2023-05-24T07:19:55;15.20;90.90
13585;DHT22;6863;48.402;9.994;2023-05-24T07:22:21;15.50;90.50
13585;DHT22;6863;48.402;9.994;2023-05-24T07:27:20;15.80;90.00
13585;DHT22;6863;48.402;9.994;2023-05-24T07:29:49;16.20;89.40
13585;DHT22;6863;48.402;9.994;2023-05-24T07:32:15;16.20;87.60
13585;DHT22;6863;48.402;9.994;2023-05-24T07:34:41;16.30;86.80
13585;DHT22;6863;48.402;9.994;2023-05-24T07:37:07;16.50;86.10
13585;DHT22;6863;48.402;9.994;2023-05-24T07:39:33;16.50;85.70
13585;DHT22;6863;48.402;9.994;2023-05-24T07:41:59;16.80;85.40
13585;DHT22;6863;48.402;9.994;2023-05-24T07:44:24;16.90;83.90
13585;DHT22;6863;48.402;9.994;2023-05-24T07:46:50;16.80;83.20
13585;DHT22;6863;48.402;9.994;2023-05-24T07:49:16;16.90;82.70
13585;DHT22;6863;48.402;9.994;2023-05-24T07:51:41;16.70;81.80
13585;DHT22;6863;48.402;9.994;2023-05-24T07:54:07;16.80;80.50
13585;DHT22;6863;48.402;9.994;2023-05-24T07:56:32;16.80;81.90
13585;DHT22;6863;48.402;9.994;2023-05-24T07:58:58;17.00;81.30
13585;DHT22;6863;48.402;9.994;2023-05-24T08:01:33;16.80;80.30
13585;DHT22;6863;48.402;9.994;2023-05-24T08:04:02;16.60;80.90
13585;DHT22;6863;48.402;9.994;2023-05-24T08:06:31;16.70;81.20
13585;DHT22;6863;48.402;9.994;2023-05-24T08:08:57;16.80;80.80
13585;DHT22;6863;48.402;9.994;2023-05-24T08:11:23;16.90;80.50
13585;DHT22;6863;48.402;9.994;2023-05-24T08:13:48;17.10;80.60
13585;DHT22;6863;48.402;9.994;2023-05-24T08:16:14;17.40;80.10
13585;DHT22;6863;48.402;9.994;2023-05-24T08:18:39;17.50;78.90
13585;DHT22;6863;48.402;9.994;2023-05-24T08:21:06;17.40;79.20
13585;DHT22;6863;48.402;9.994;2023-05-24T08:23:33;17.60;79.20
13585;DHT22;6863;48.402;9.994;2023-05-24T08:25:58;17.60;79.00
13585;DHT22;6863;48.402;9.994;2023-05-24T08:28:25;17.80;78.70
13585;DHT22;6863;48.402;9.994;2023-05-24T08:30:51;17.90;78.20
13585;DHT22;6863;48.402;9.994;2023-05-24T08:33:16;17.90;77.90
13585;DHT22;6863;48.402;9.994;2023-05-24T08:35:45;17.60;77.50
13585;DHT22;6863;48.402;9.994;2023-05-24T08:38:10;17.30;79.20
13585;DHT22;6863;48.402;9.994;2023-05-24T08:40:36;17.40;78.90
13585;DHT22;6863;48.402;9.994;2023-05-24T08:43:02;17.10;79.70
13585;DHT22;6863;48.402;9.994;2023-05-24T08:45:37;17.10;80.20
13585;DHT22;6863;48.402;9.994;2023-05-24T08:48:04;17.20;80.00
13585;DHT22;6863;48.402;9.994;2023-05-24T08:50:30;17.30;79.80
13585;DHT22;6863;48.402;9.994;2023-05-24T08:52:57;17.40;79.90
13585;DHT22;6863;48.402;9.994;2023-05-24T08:55:23;17.30;79.50
13585;DHT22;6863;48.402;9.994;2023-05-24T08:57:49;17.20;80.80
13585;DHT22;6863;48.402;9.994;2023-05-24T09:00:16;17.30;80.70
13585;DHT22;6863;48.402;9.994;2023-05-24T09:02:43;17.30;80.50
13585;DHT22;6863;48.402;9.994;2023-05-24T09:05:11;17.10;80.40
13585;DHT22;6863;48.402;9.994;2023-05-24T09:07:39;17.10;79.60
13585;DHT22;6863;48.402;9.994;2023-05-24T09:10:07;17.00;81.20
13585;DHT22;6863;48.402;9.994;2023-05-24T09:12:35;17.00;80.00
13585;DHT22;6863;48.402;9.994;2023-05-24T09:15:06;16.80;80.50
13585;DHT22;6863;48.402;9.994;2023-05-24T09:17:36;17.10;79.40
13585;DHT22;6863;48.402;9.994;2023-05-24T09:20:05;17.00;79.70
13585;DHT22;6863;48.402;9.994;2023-05-24T09:22:35;16.90;80.40
13585;DHT22;6863;48.402;9.994;2023-05-24T09:25:04;16.90;80.30
13585;DHT22;6863;48.402;9.994;2023-05-24T09:27:33;17.10;79.20
13585;DHT22;6863;48.402;9.994;2023-05-24T09:30:00;17.30;78.90
13585;DHT22;6863;48.402;9.994;2023-05-24T09:32:29;17.30;76.60
13585;DHT22;6863;48.402;9.994;2023-05-24T09:34:57;17.40;76.30
13585;DHT22;6863;48.402;9.994;2023-05-24T09:37:24;17.40;77.00
13585;DHT22;6863;48.402;9.994;2023-05-24T09:39:52;17.60;76.30
13585;DHT22;6863;48.402;9.994;2023-05-24T09:42:19;18.00;75.50
13585;DHT22;6863;48.402;9.994;2023-05-24T09:44:59;17.90;74.70
13585;DHT22;6863;48.402;9.994;2023-05-24T09:47:30;17.90;74.90
13585;DHT22;6863;48.402;9.994;2023-05-24T09:49:56;17.90;74.60
13585;DHT22;6863;48.402;9.994;2023-05-24T09:52:22;18.00;74.60
13585;DHT22;6863;48.402;9.994;2023-05-24T09:54:47;18.10;74.10
13585;DHT22;6863;48.402;9.994;2023-05-24T09:57:16;17.90;73.70
13585;DHT22;6863;48.402;9.994;2023-05-24T09:59:42;17.80;73.80
13585;DHT22;6863;48.402;9.994;2023-05-24T10:02:10;17.90;72.40
13585;DHT22;6863;48.402;9.994;2023-05-24T10:04:37;18.20;72.70
13585;DHT22;6863;48.402;9.994;2023-05-24T10:07:04;18.20;72.50
13585;DHT22;6863;48.402;9.994;2023-05-24T10:09:30;18.10;72.50
13585;DHT22;6863;48.402;9.994;2023-05-24T10:12:07;18.10;72.60
13585;DHT22;6863;48.402;9.994;2023-05-24T10:14:37;17.80;71.50
13585;DHT22;6863;48.402;9.994;2023-05-24T10:17:03;17.60;72.80
13585;DHT22;6863;48.402;9.994;2023-05-24T10:19:33;17.60;73.90
13585;DHT22;6863;48.402;9.994;2023-05-24T10:22:00;17.80;73.80
13585;DHT22;6863;48.402;9.994;2023-05-24T10:24:32;17.90;73.30
13585;DHT22;6863;48.402;9.994;2023-05-24T10:27:17;18.20;70.50
13585;DHT22;6863;48.402;9.994;2023-05-24T10:32:14;18.20;71.40
13585;DHT22;6863;48.402;9.994;2023-05-24T10:34:41;18.10;70.00
13585;DHT22;6863;48.402;9.994;2023-05-24T10:37:07;18.00;70.20
13585;DHT22;6863;48.402;9.994;2023-05-24T10:39:34;17.90;70.70
13585;DHT22;6863;48.402;9.994;2023-05-24T10:44:28;17.90;68.90
13585;DHT22;6863;48.402;9.994;2023-05-24T10:47:12;17.80;69.20
13585;DHT22;6863;48.402;9.994;2023-05-24T10:49:55;17.60;70.10
13585;DHT22;6863;48.402;9.994;2023-05-24T10:52:33;17.60;70.20
13585;DHT22;6863;48.402;9.994;2023-05-24T10:55:07;17.90;69.90
13585;DHT22;6863;48.402;9.994;2023-05-24T10:57:37;17.80;69.60
13585;DHT22;6863;48.402;9.994;2023-05-24T11:02:50;17.90;69.40
13585;DHT22;6863;48.402;9.994;2023-05-24T11:05:23;17.80;68.60
13585;DHT22;6863;48.402;9.994;2023-05-24T11:07:48;17.70;69.10
13585;DHT22;6863;48.402;9.994;2023-05-24T11:10:15;17.60;70.10
13585;DHT22;6863;48.402;9.994;2023-05-24T11:12:41;17.60;70.60
13585;DHT22;6863;48.402;9.994;2023-05-24T11:15:10;17.70;70.70
13585;DHT22;6863;48.402;9.994;2023-05-24T11:20:47;17.70;71.50
13585;DHT22;6863;48.402;9.994;2023-05-24T11:23:14;18.20;67.80
13585;DHT22;6863;48.402;9.994;2023-05-24T11:25:40;18.50;64.90
13585;DHT22;6863;48.402;9.994;2023-05-24T11:28:07;18.60;63.50
13585;DHT22;6863;48.402;9.994;2023-05-24T11:30:47;18.70;64.40
13585;DHT22;6863;48.402;9.994;2023-05-24T11:33:16;18.80;64.30
13585;DHT22;6863;48.402;9.994;2023-05-24T11:35:49;18.70;65.40
13585;DHT22;6863;48.402;9.994;2023-05-24T11:38:18;18.60;65.30
13585;DHT22;6863;48.402;9.994;2023-05-24T11:40:48;18.30;66.50
13585;DHT22;6863;48.402;9.994;2023-05-24T11:43:16;18.30;67.10
13585;DHT22;6863;48.402;9.994;2023-05-24T11:45:44;18.40;66.90
13585;DHT22;6863;48.402;9.994;2023-05-24T11:48:11;18.30;65.90
13585;DHT22;6863;48.402;9.994;2023-05-24T11:50:45;18.30;67.30
13585;DHT22;6863;48.402;9.994;2023-05-24T11:53:16;18.20;67.10
13585;DHT22;6863;48.402;9.994;2023-05-24T11:55:43;18.20;66.70
13585;DHT22;6863;48.402;9.994;2023-05-24T12:00:42;17.90;67.60
13585;DHT22;6863;48.402;9.994;2023-05-24T12:03:08;17.80;67.20
13585;DHT22;6863;48.402;9.994;2023-05-24T12:05:35;17.90;66.70
13585;DHT22;6863;48.402;9.994;2023-05-24T12:08:03;17.90;66.60
13585;DHT22;6863;48.402;9.994;2023-05-24T12:10:34;17.60;68.10
13585;DHT22;6863;48.402;9.994;2023-05-24T12:13:04;17.60;68.00
13585;DHT22;6863;48.402;9.994;2023-05-24T12:15:30;17.50;68.90
13585;DHT22;6863;48.402;9.994;2023-05-24T12:17:58;17.50;67.60
13585;DHT22;6863;48.402;9.994;2023-05-24T12:20:27;17.30;67.70
13585;DHT22;6863;48.402;9.994;2023-05-24T12:22:53;16.90;69.00
13585;DHT22;6863;48.402;9.994;2023-05-24T12:25:20;16.80;69.10
13585;DHT22;6863;48.402;9.994;2023-05-24T12:27:54;16.80;68.60
13585;DHT22;6863;48.402;9.994;2023-05-24T12:30:26;16.80;68.50
13585;DHT22;6863;48.402;9.994;2023-05-24T12:32:52;16.70;69.40
13585;DHT22;6863;48.402;9.994;2023-05-24T12:35:19;16.80;69.00
13585;DHT22;6863;48.402;9.994;2023-05-24T12:37:45;16.70;68.90
13585;DHT22;6863;48.402;9.994;2023-05-24T12:40:19;16.70;68.40
13585;DHT22;6863;48.402;9.994;2023-05-24T12:42:49;16.70;68.70
13585;DHT22;6863;48.402;9.994;2023-05-24T12:45:16;16.70;68.40
13585;DHT22;6863;48.402;9.994;2023-05-24T12:47:48;16.70;67.70
13585;DHT22;6863;48.402;9.994;2023-05-24T12:50:14;16.60;68.80
13585;DHT22;6863;48.402;9.994;2023-05-24T12:52:41;16.90;68.50
13585;DHT22;6863;48.402;9.994;2023-05-24T12:55:08;17.20;67.90
13585;DHT22;6863;48.402;9.994;2023-05-24T12:57:34;17.50;67.40
13585;DHT22;6863;48.402;9.994;2023-05-24T12:59:59;17.60;67.40
13585;DHT22;6863;48.402;9.994;2023-05-24T13:02:25;17.70;67.20
13585;DHT22;6863;48.402;9.994;2023-05-24T13:04:50;17.60;67.20
13585;DHT22;6863;48.402;9.994;2023-05-24T13:07:16;17.60;67.50
13585;DHT22;6863;48.402;9.994;2023-05-24T13:09:42;17.60;67.70
13585;DHT22;6863;48.402;9.994;2023-05-24T13:12:08;17.60;67.90
13585;DHT22;6863;48.402;9.994;2023-05-24T13:14:34;17.80;67.80
13585;DHT22;6863;48.402;9.994;2023-05-24T13:17:00;17.90;68.00
13585;DHT22;6863;48.402;9.994;2023-05-24T13:19:26;18.00;67.90
13585;DHT22;6863;48.402;9.994;2023-05-24T13:21:52;18.10;66.80
13585;DHT22;6863;48.402;9.994;2023-05-24T13:24:18;18.50;66.60
13585;DHT22;6863;48.402;9.994;2023-05-24T13:26:44;18.60;65.60
13585;DHT22;6863;48.402;9.994;2023-05-24T13:29:11;18.30;65.90
13585;DHT22;6863;48.402;9.994;2023-05-24T13:31:37;18.10;66.80
13585;DHT22;6863;48.402;9.994;2023-05-24T13:34:02;18.10;66.20
13585;DHT22;6863;48.402;9.994;2023-05-24T13:36:28;18.20;66.20
13585;DHT22;6863;48.402;9.994;2023-05-24T13:38:54;18.30;66.80
13585;DHT22;6863;48.402;9.994;2023-05-24T13:41:19;18.60;65.60
13585;DHT22;6863;48.402;9.994;2023-05-24T13:43:45;18.90;63.70
13585;DHT22;6863;48.402;9.994;2023-05-24T13:46:11;18.50;64.00
13585;DHT22;6863;48.402;9.994;2023-05-24T13:48:37;18.10;65.10
13585;DHT22;6863;48.402;9.994;2023-05-24T13:51:04;18.10;65.10
13585;DHT22;6863;48.402;9.994;2023-05-24T13:53:29;17.90;66.80
13585;DHT22;6863;48.402;9.994;2023-05-24T13:55:56;17.70;65.40
13585;DHT22;6863;48.402;9.994;2023-05-24T13:58:21;17.40;66.80
13585;DHT22;6863;48.402;9.994;2023-05-24T14:00:47;17.30;67.20
13585;DHT22;6863;48.402;9.994;2023-05-24T14:03:13;17.30;66.80
13585;DHT22;6863;48.402;9.994;2023-05-24T14:05:40;17.00;67.90
13585;DHT22;6863;48.402;9.994;2023-05-24T14:08:06;17.00;67.50
13585;DHT22;6863;48.402;9.994;2023-05-24T14:10:36;17.00;66.90
13585;DHT22;6863;48.402;9.994;2023-05-24T14:13:05;17.00;67.50
13585;DHT22;6863;48.402;9.994;2023-05-24T14:15:31;17.20;67.50
13585;DHT22;6863;48.402;9.994;2023-05-24T14:17:59;17.20;67.00
13585;DHT22;6863;48.402;9.994;2023-05-24T14:20:25;17.30;66.60
13585;DHT22;6863;48.402;9.994;2023-05-24T14:22:51;17.70;65.90
13585;DHT22;6863;48.402;9.994;2023-05-24T14:25:23;18.30;64.60
13585;DHT22;6863;48.402;9.994;2023-05-24T14:27:48;19.00;62.70
13585;DHT22;6863;48.402;9.994;2023-05-24T14:30:14;19.60;61.10
13585;DHT22;6863;48.402;9.994;2023-05-24T14:32:40;21.10;58.40
13585;DHT22;6863;48.402;9.994;2023-05-24T14:35:05;22.90;55.80
13585;DHT22;6863;48.402;9.994;2023-05-24T14:37:31;23.80;52.50
13585;DHT22;6863;48.402;9.994;2023-05-24T14:39:57;23.70;50.00
13585;DHT22;6863;48.402;9.994;2023-05-24T14:42:22;23.60;49.60
13585;DHT22;6863;48.402;9.994;2023-05-24T14:44:48;22.60;50.80
13585;DHT22;6863;48.402;9.994;2023-05-24T14:47:14;22.80;51.60
13585;DHT22;6863;48.402;9.994;2023-05-24T14:49:39;22.80;50.10
13585;DHT22;6863;48.402;9.994;2023-05-24T14:52:05;22.30;50.40
13585;DHT22;6863;48.402;9.994;2023-05-24T14:54:31;22.00;51.60
13585;DHT22;6863;48.402;9.994;2023-05-24T14:56:56;21.30;51.90
13585;DHT22;6863;48.402;9.994;2023-05-24T14:59:25;21.40;52.70
13585;DHT22;6863;48.402;9.994;2023-05-24T15:01:51;21.30;52.90
13585;DHT22;6863;48.402;9.994;2023-05-24T15:04:16;21.60;51.70
13585;DHT22;6863;48.402;9.994;2023-05-24T15:06:42;21.40;51.90
13585;DHT22;6863;48.402;9.994;2023-05-24T15:09:08;21.10;52.20
13585;DHT22;6863;48.402;9.994;2023-05-24T15:11:33;20.80;53.30
13585;DHT22;6863;48.402;9.994;2023-05-24T15:13:59;20.60;53.30
13585;DHT22;6863;48.402;9.994;2023-05-24T15:16:25;20.50;53.50
13585;DHT22;6863;48.402;9.994;2023-05-24T15:18:51;20.40;53.10
13585;DHT22;6863;48.402;9.994;2023-05-24T15:21:20;20.40;53.30
13585;DHT22;6863;48.402;9.994;2023-05-24T15:23:46;20.20;53.50
13585;DHT22;6863;48.402;9.994;2023-05-24T15:26:12;20.30;52.50
13585;DHT22;6863;48.402;9.994;2023-05-24T15:28:40;20.50;51.90
13585;DHT22;6863;48.402;9.994;2023-05-24T15:31:06;20.50;51.90
13585;DHT22;6863;48.402;9.994;2023-05-24T15:33:32;20.20;52.30
13585;DHT22;6863;48.402;9.994;2023-05-24T15:35:58;19.70;54.20
13585;DHT22;6863;48.402;9.994;2023-05-24T15:38:23;19.70;53.60
13585;DHT22;6863;48.402;9.994;2023-05-24T15:40:49;19.20;54.30
13585;DHT22;6863;48.402;9.994;2023-05-24T15:43:17;19.10;54.60
13585;DHT22;6863;48.402;9.994;2023-05-24T15:45:44;19.20;54.80
13585;DHT22;6863;48.402;9.994;2023-05-24T15:48:10;19.20;55.60
13585;DHT22;6863;48.402;9.994;2023-05-24T15:50:37;19.00;56.10
13585;DHT22;6863;48.402;9.994;2023-05-24T15:53:03;19.00;56.70
13585;DHT22;6863;48.402;9.994;2023-05-24T15:55:28;19.10;56.40
13585;DHT22;6863;48.402;9.994;2023-05-24T15:57:56;19.00;57.00
13585;DHT22;6863;48.402;9.994;2023-05-24T16:00:22;19.00;56.40
13585;DHT22;6863;48.402;9.994;2023-05-24T16:02:48;18.50;57.20
13585;DHT22;6863;48.402;9.994;2023-05-24T16:05:13;18.30;58.20
13585;DHT22;6863;48.402;9.994;2023-05-24T16:07:39;18.20;58.00
13585;DHT22;6863;48.402;9.994;2023-05-24T16:10:05;18.10;58.60
13585;DHT22;6863;48.402;9.994;2023-05-24T16:12:31;18.10;57.80